Latest Coastal Weather Observations for Christmas Island

IDW60701

Issued at 2:55 am WST Friday 31 October 2014 (issued every 10 minutes, with the page automatically refreshed every 10 minutes)

About coastal observations | Map of coastal stations | Coastal observations for WA | Marine services | Other Formats
Station Details ID: 200790 Name: CHRISTMAS ISLAND AERO Lat: -10.45 Lon: 105.69 Height: 261.0 m
Data from the previous 72 hours. | See also: Recent months at Christmas Island
Date/Time
WST
Temp

°C
Wind Pressure Rain
since 9am
mm
Weather Cloud Vis
km
Sea
Height
m
Swell
Dir
 
Speed
knots
Gust
knots
hPa Trend Height
m
Period
s
Dir
29/12:00pm 25.6 SSE 11 17 1015.4 - - - Partly cloudy 10 - - - -
29/11:52am 25.9 SSE 11 17 1015.5 - - - Partly cloudy 10 - - - -
29/11:50am 26.1 SSE 10 16 1015.4 - - - Partly cloudy 10 - - - -
29/11:31am 26.1 SE 11 15 1015.5 - - - Partly cloudy 10 - - - -
29/11:00am 26.5 SE 9 14 1015.6 - - - - 10 - - - -
29/10:00am - - - - - - - - - - - - - -
29/09:30am - - - - - - - - - - - - - -
29/09:00am 25.9 - 10 16 1015.7 - 0.0 - Partly cloudy - - - - -
29/08:31am 25.2 - 9 14 1015.6 - 0.0 - Partly cloudy - - - - -
29/08:00am 24.6 - 9 12 1015.3 - 0.0 - Partly cloudy 10 - - - -
29/07:00am 23.5 - 8 11 1013.4 - 0.0 - Cloudy 10 - - - -
29/06:34am 23.5 - 7 10 1014.8 - 0.0 - Partly cloudy 10 - - - -
29/06:00am 23.4 - 7 11 1014.3 - 0.0 - Partly cloudy 10 - - - -
29/05:46am 23.4 - 7 9 1014.2 - 0.0 - Partly cloudy 10 - - - -
29/05:30am 23.2 - 8 11 1014.0 - 0.0 - Partly cloudy 10 - - - -
29/05:14am 23.4 - 7 10 1013.7 - 0.0 - Partly cloudy 10 - - - -
29/05:00am 23.4 - 9 14 1013.6 - 0.0 - Partly cloudy 10 - - - -
29/04:00am 23.2 - 8 12 1011.9 - 0.0 - Partly cloudy 10 - - - -
29/03:51am 23.3 - 9 15 1013.4 - 0.0 - Partly cloudy 10 - - - -
29/03:38am 23.3 - 8 13 1013.3 - 0.0 - Partly cloudy 10 - - - -
29/03:26am 23.3 - 9 13 1013.4 - 0.0 - Partly cloudy 10 - - - -
29/03:16am 23.4 - 8 15 1013.5 - 0.0 - Partly cloudy 10 - - - -
29/03:00am 23.2 - 9 12 1013.3 - 0.0 - Partly cloudy 10 - - - -
29/02:00am 23.2 - 7 11 1013.5 - 0.0 - Partly cloudy 10 - - - -
29/01:05am 23.4 - 9 14 1014.1 - 0.0 - Partly cloudy 10 - - - -
29/01:00am 23.3 - 9 14 1012.6 - 0.0 - Partly cloudy 10 - - - -
29/12:55am 23.4 - 9 12 1014.1 - 0.0 - Partly cloudy 10 - - - -
29/12:00am 23.4 - 9 12 1014.6 - 0.0 - Partly cloudy 10 - - - -
 
Date/Time
WST
Temp

°C
Wind Pressure Rain
since 9am
mm
Weather Cloud Vis
km
Sea
Height
m
Swell
Dir
 
Speed
knots
Gust
knots
hPa Trend Height
m
Period
s
Dir
28/11:00pm 23.7 - 10 13 1015.2 - 0.0 - Partly cloudy 10 - - - -
28/10:02pm 23.8 - 10 15 1015.0 - 0.0 - Partly cloudy 10 - - - -
28/10:00pm 23.8 - 10 15 1013.5 - 0.0 - Mostly clear 10 - - - -
28/09:12pm 24.1 - 9 13 1014.7 - 0.0 - Partly cloudy 10 - - - -
28/09:00pm 23.9 - 8 11 1014.6 - 0.0 - Partly cloudy 10 - - - -
28/08:00pm 23.9 - 9 16 1014.0 - 0.0 - Partly cloudy 10 - - - -
28/07:00pm 24.1 - 9 15 1012.0 - 0.0 - Mostly clear 10 - - - -
28/06:45pm 24.3 - 9 15 1013.3 - 0.0 - Partly cloudy 10 - - - -
28/06:00pm 25.0 - 8 13 1013.1 - 0.0 - Partly cloudy 10 - - - -
28/05:59pm 24.9 - 9 13 1013.0 - 0.0 - Partly cloudy 10 - - - -
28/05:38pm 25.2 - 9 14 1013.0 - 0.0 - Partly cloudy 10 - - - -
28/05:21pm 25.3 - 10 16 1012.9 - 0.0 - Partly cloudy 10 - - - -
28/05:00pm 26.3 - 10 15 1012.8 - 0.0 - Partly cloudy 10 - - - -
28/04:31pm 26.3 - 10 16 1012.9 - 0.0 - Partly cloudy 10 - - - -
28/04:00pm 25.9 - 10 17 1011.5 - 0.0 - Partly cloudy 10 - - - -
28/03:54pm 26.6 - 10 17 1013.0 - 0.0 - Partly cloudy 10 - - - -
28/03:46pm 26.0 - 11 15 1012.9 - 0.0 - Partly cloudy 10 - - - -
28/03:00pm 25.7 - 12 18 1013.2 - 0.0 - Partly cloudy 10 - - - -
28/02:28pm 26.0 - 12 16 1013.4 - 0.0 - Partly cloudy 10 - - - -
28/02:00pm 26.7 - 12 17 1013.6 - 0.0 - Partly cloudy 10 - - - -
28/01:00pm 26.4 - 11 17 1012.7 - 0.0 - Mostly clear 10 - - - -
28/12:42pm 26.2 - 12 17 1014.4 - 0.0 - Partly cloudy 10 - - - -
28/12:00pm 26.5 - 10 15 1014.7 - 0.0 - Partly cloudy - - - - -
28/11:59am 26.7 - 10 15 1014.8 - 0.0 - Partly cloudy - - - - -
28/11:00am 26.4 - 12 17 1015.0 - 0.0 - Partly cloudy - - - - -
28/10:44am 25.9 - 10 16 1015.0 - 0.0 - Partly cloudy - - - - -
28/10:00am 25.9 - 12 18 1013.7 - 1.8 - Mostly clear - - - - -
28/09:00am 25.3 - 12 16 1015.0 - 0.0 - Partly cloudy - - - - -
28/08:00am 24.7 - 9 13 1014.8 - 0.0 - Partly cloudy 10 - - - -
28/07:32am 24.2 - 10 13 1014.4 - 0.0 - Partly cloudy 10 - - - -
28/07:00am 23.6 - 6 12 1012.5 - 0.0 - Cloudy 10 - - - -
28/06:53am 23.3 - 7 12 1013.9 - 0.0 - Partly cloudy 10 - - - -
28/06:00am 23.0 - 7 10 1013.7 - 0.0 - Partly cloudy 10 - - - -
28/05:56am 23.1 - 8 11 1013.6 - 0.0 - Partly cloudy 10 - - - -
28/05:09am 23.3 - 8 11 1013.3 - 0.0 - Partly cloudy 10 - - - -
28/05:00am 23.2 - 9 13 1013.2 - 0.0 - Partly cloudy 10 - - - -
28/04:27am 23.3 - 9 12 1013.0 - 0.0 - Partly cloudy 10 - - - -
28/04:00am 23.4 - 10 15 1011.4 - 0.0 - Cloudy 10 - - - -

Other Formats:

Comma delimited format used in spreadsheet applications
http://www.bom.gov.au/fwo/IDW60701/IDW60701.96995.axf

JavaScript Object Notation format (JSON) in row-major order
http://www.bom.gov.au/fwo/IDW60701/IDW60701.96995.json